Accueil
METAR-TAF:

METAR-TAF

Aéroports :

East Hampton Airport

East Hampton, New York, États-Unis

latitude: 40-57-34N, longitude: 072-15-07W, altitude: 17 m

Observation

Le bulletin a été fait il y a 37 minutes, à 06:15 UTC
Vent calme
Température 15°C
Humidité 82%
Pression 1007 hPa
Visibilité: 16.1 km
Nuages fragmentés à une hauteur de 11000 ft

METAR: KHTO 030615Z AUTO 00000KT 10SM BKN110 15/12 A2975 RMK AO2 T01470120

Heure: 02:52 (06:52 UTC)


TAF: absent

Observations et prévisions météorologiques de plus de 4000 aéroports (messages METAR et TAF).

Les stations disponibles sont représentées par des disques jaunes et rouges sur la carte.

Passer la souris dessus pour voir le nom de la station.

Cliquer dessus pour voir les observations et prévisions météorologiques.

Pour changer de carte: cliquez sur les boutons verts avec une croix noire pour zoomer, sur le bouton vert avec un tiret pour effectuer un zoom arrière, ou sur les flèches vertes pour les cartes adjacentes.


METAR-TAF: